メインページ
METAR-TAF:

METAR-TAF

空港 :

コルドバ, アルゼンチン

緯度: 31-19S, 経度: 064-13W, 海抜: 484m

現時点の気象観測

当レポートは53分前の01:00(UTC)に作成
東/北東の風 3kt
気温 18°C
湿度 77%
気圧 1009 hPa
視程10km以上
高度2500ftの千切れ雲あり

METAR: SACO 260100Z 07003KT 9999 BKN025 18/14 Q1009

時間: 22:53 (01:53 UTC)

予報

当レポートは2時間53分前の23:00(UTC)に作成
予報は26日の 00時(UTC)から 26日の 24時(UTC)まで有効
北/北東の風 10kt
視程10km以上
高度2000ftの雲は散在している
26日の 08時(UTC)から 26日の 11時(UTC)まで一時的に
北/北東の風 5kt
視程: 5000m
高度1500ftの雲は散在している
26日の 15時(UTC)から 26日の 18時(UTC)まで徐々に
視程: 5000m
高度2000ftの千切れ雲あり
高度4000ftの曇り
高度4500ftの雲はほとんどない, 積乱雲.
激しい雷雨, 雨

TAF: SACO 252300Z 2600/2624 02010KT 9999 SCT020 TX24/2618Z TN13/2610Z TEMPO 2608/2611 02005KT 5000 BR SCT015 BECMG 2615/2618 5000 TSRA BKN020 OVC040 FEW045CB

4,000以上の空港の気象観測と天気予報(METAR報とTAF報)

利用可能な観測所は地図上に黄色い丸と赤い丸で示す。

丸の上にカーソルを重ねると観測所名を参照できる。

次にクリックすると気象観測と天気予報を参照できる。

マップの切り替え:黒色「×」印の緑ボタンをクリックして拡大、「-」印の緑ボタンをクリックして縮小、緑色の三角印をクリックして隣りの地図に切り替え


METAR-TAF: